sensor_id;sensor_type;location;lat;lon;timestamp;pressure;altitude;pressure_sealevel;temperature;humidity
47522;BME280;32291;52.010;4.446;2022-08-03T00:00:57;77480.47;;;-144.67;100.00
47522;BME280;32291;52.010;4.446;2022-08-03T00:02:00;77482.63;;;-144.67;100.00
47522;BME280;32291;52.010;4.446;2022-08-03T00:03:04;77482.63;;;-144.67;100.00
47522;BME280;32291;52.010;4.446;2022-08-03T00:04:08;77482.63;;;-144.67;100.00
47522;BME280;32291;52.010;4.446;2022-08-03T00:05:11;77482.63;;;-144.67;100.00
47522;BME280;32291;52.010;4.446;2022-08-03T00:06:15;77489.03;;;-144.67;100.00
47522;BME280;32291;52.010;4.446;2022-08-03T00:07:19;77486.91;;;-144.67;100.00
47522;BME280;32291;52.010;4.446;2022-08-03T00:08:21;77489.03;;;-144.67;100.00
47522;BME280;32291;52.010;4.446;2022-08-03T00:09:23;77491.19;;;-144.67;100.00
47522;BME280;32291;52.010;4.446;2022-08-03T00:10:25;77489.03;;;-144.67;100.00
47522;BME280;32291;52.010;4.446;2022-08-03T00:11:27;77493.31;;;-144.67;100.00
47522;BME280;32291;52.010;4.446;2022-08-03T00:12:29;77497.59;;;-144.67;100.00
47522;BME280;32291;52.010;4.446;2022-08-03T00:13:32;77497.59;;;-144.67;100.00
47522;BME280;32291;52.010;4.446;2022-08-03T00:14:35;77501.88;;;-144.67;100.00
47522;BME280;32291;52.010;4.446;2022-08-03T00:15:38;77495.47;;;-144.67;100.00
47522;BME280;32291;52.010;4.446;2022-08-03T00:16:41;77495.47;;;-144.67;100.00
47522;BME280;32291;52.010;4.446;2022-08-03T00:17:44;77499.75;;;-144.67;100.00
47522;BME280;32291;52.010;4.446;2022-08-03T00:18:46;77491.19;;;-144.67;100.00
47522;BME280;32291;52.010;4.446;2022-08-03T00:19:48;77495.47;;;-144.67;100.00
47522;BME280;32291;52.010;4.446;2022-08-03T00:20:50;77499.75;;;-144.67;100.00
47522;BME280;32291;52.010;4.446;2022-08-03T00:21:52;77499.75;;;-144.67;100.00
47522;BME280;32291;52.010;4.446;2022-08-03T00:22:54;77501.88;;;-144.67;100.00
47522;BME280;32291;52.010;4.446;2022-08-03T00:23:56;77499.75;;;-144.67;100.00
47522;BME280;32291;52.010;4.446;2022-08-03T00:24:59;77501.88;;;-144.67;100.00
47522;BME280;32291;52.010;4.446;2022-08-03T00:26:01;77504.03;;;-144.67;100.00
47522;BME280;32291;52.010;4.446;2022-08-03T00:27:03;77504.03;;;-144.67;100.00
47522;BME280;32291;52.010;4.446;2022-08-03T00:28:07;77508.31;;;-144.67;100.00
47522;BME280;32291;52.010;4.446;2022-08-03T00:29:10;77504.03;;;-144.67;100.00
47522;BME280;32291;52.010;4.446;2022-08-03T00:30:12;77504.03;;;-144.67;100.00
47522;BME280;32291;52.010;4.446;2022-08-03T00:31:14;77506.16;;;-144.67;100.00
47522;BME280;32291;52.010;4.446;2022-08-03T00:32:16;77508.31;;;-144.67;100.00
47522;BME280;32291;52.010;4.446;2022-08-03T00:33:18;77501.88;;;-144.67;100.00
47522;BME280;32291;52.010;4.446;2022-08-03T00:34:20;77499.75;;;-144.67;100.00
47522;BME280;32291;52.010;4.446;2022-08-03T00:35:25;77491.19;;;-144.67;100.00
47522;BME280;32291;52.010;4.446;2022-08-03T00:36:28;77497.59;;;-144.67;100.00
47522;BME280;32291;52.010;4.446;2022-08-03T00:37:30;77495.47;;;-144.67;100.00
47522;BME280;32291;52.010;4.446;2022-08-03T00:38:35;77504.03;;;-144.67;100.00
47522;BME280;32291;52.010;4.446;2022-08-03T00:39:38;77506.16;;;-144.67;100.00
47522;BME280;32291;52.010;4.446;2022-08-03T00:40:41;77499.75;;;-144.67;100.00
47522;BME280;32291;52.010;4.446;2022-08-03T00:41:43;77495.47;;;-144.67;100.00
47522;BME280;32291;52.010;4.446;2022-08-03T00:42:52;77499.75;;;-144.67;100.00
47522;BME280;32291;52.010;4.446;2022-08-03T00:44:00;77493.31;;;-144.67;100.00
47522;BME280;32291;52.010;4.446;2022-08-03T00:45:02;77486.91;;;-144.67;100.00
47522;BME280;32291;52.010;4.446;2022-08-03T00:46:05;77499.75;;;-144.67;100.00
47522;BME280;32291;52.010;4.446;2022-08-03T00:47:08;77495.47;;;-144.67;100.00
47522;BME280;32291;52.010;4.446;2022-08-03T00:48:12;77493.31;;;-144.67;100.00
47522;BME280;32291;52.010;4.446;2022-08-03T00:49:14;77504.03;;;-144.67;100.00
47522;BME280;32291;52.010;4.446;2022-08-03T00:50:17;77506.16;;;-144.67;100.00
47522;BME280;32291;52.010;4.446;2022-08-03T00:51:22;77504.03;;;-144.67;100.00
47522;BME280;32291;52.010;4.446;2022-08-03T00:52:24;77495.47;;;-144.67;100.00
47522;BME280;32291;52.010;4.446;2022-08-03T00:53:27;77495.47;;;-144.67;100.00
47522;BME280;32291;52.010;4.446;2022-08-03T00:54:30;77501.88;;;-144.67;100.00
47522;BME280;32291;52.010;4.446;2022-08-03T00:55:35;77491.19;;;-144.67;100.00
47522;BME280;32291;52.010;4.446;2022-08-03T00:56:40;77499.75;;;-144.67;100.00
47522;BME280;32291;52.010;4.446;2022-08-03T00:57:43;77501.88;;;-144.67;100.00
47522;BME280;32291;52.010;4.446;2022-08-03T00:58:46;77493.31;;;-144.67;100.00
47522;BME280;32291;52.010;4.446;2022-08-03T00:59:48;77504.03;;;-144.67;100.00
47522;BME280;32291;52.010;4.446;2022-08-03T01:00:51;77508.31;;;-144.67;100.00
47522;BME280;32291;52.010;4.446;2022-08-03T01:01:53;77504.03;;;-144.67;100.00
47522;BME280;32291;52.010;4.446;2022-08-03T01:02:56;77512.59;;;-144.67;100.00
47522;BME280;32291;52.010;4.446;2022-08-03T01:03:58;77508.31;;;-144.67;100.00
47522;BME280;32291;52.010;4.446;2022-08-03T01:05:00;77512.59;;;-144.67;100.00
47522;BME280;32291;52.010;4.446;2022-08-03T01:06:15;77508.31;;;-144.67;100.00
47522;BME280;32291;52.010;4.446;2022-08-03T01:08:12;77512.59;;;-144.67;100.00
47522;BME280;32291;52.010;4.446;2022-08-03T01:12:31;77512.59;;;-144.67;100.00
47522;BME280;32291;52.010;4.446;2022-08-03T01:14:20;77519.00;;;-144.67;100.00
47522;BME280;32291;52.010;4.446;2022-08-03T01:16:13;77516.88;;;-144.67;100.00
47522;BME280;32291;52.010;4.446;2022-08-03T01:17:30;77519.00;;;-144.67;100.00
47522;BME280;32291;52.010;4.446;2022-08-03T01:18:54;77516.88;;;-144.67;100.00
47522;BME280;32291;52.010;4.446;2022-08-03T01:20:09;77521.16;;;-144.67;100.00
47522;BME280;32291;52.010;4.446;2022-08-03T01:21:31;77523.28;;;-144.67;100.00
47522;BME280;32291;52.010;4.446;2022-08-03T01:31:12;77536.13;;;-144.67;100.00
47522;BME280;32291;52.010;4.446;2022-08-03T01:32:25;77534.00;;;-144.67;100.00
47522;BME280;32291;52.010;4.446;2022-08-03T01:33:42;77540.41;;;-144.67;100.00
47522;BME280;32291;52.010;4.446;2022-08-03T01:34:57;77540.41;;;-144.67;100.00
47522;BME280;32291;52.010;4.446;2022-08-03T01:36:11;77534.00;;;-144.67;100.00
47522;BME280;32291;52.010;4.446;2022-08-03T01:37:26;77544.69;;;-144.67;100.00
47522;BME280;32291;52.010;4.446;2022-08-03T01:38:46;77538.28;;;-144.67;100.00
47522;BME280;32291;52.010;4.446;2022-08-03T01:39:56;77538.28;;;-144.67;100.00
47522;BME280;32291;52.010;4.446;2022-08-03T01:41:11;77538.28;;;-144.67;100.00
47522;BME280;32291;52.010;4.446;2022-08-03T01:42:19;77542.56;;;-144.67;100.00
47522;BME280;32291;52.010;4.446;2022-08-03T01:43:27;77540.41;;;-144.67;100.00
47522;BME280;32291;52.010;4.446;2022-08-03T01:44:36;77538.28;;;-144.67;100.00
47522;BME280;32291;52.010;4.446;2022-08-03T01:45:43;77534.00;;;-144.67;100.00
47522;BME280;32291;52.010;4.446;2022-08-03T01:46:47;77538.28;;;-144.67;100.00
47522;BME280;32291;52.010;4.446;2022-08-03T01:47:53;77534.00;;;-144.67;100.00
47522;BME280;32291;52.010;4.446;2022-08-03T01:48:58;77540.41;;;-144.67;100.00
47522;BME280;32291;52.010;4.446;2022-08-03T01:50:04;77531.84;;;-144.67;100.00
47522;BME280;32291;52.010;4.446;2022-08-03T01:51:10;77525.44;;;-144.67;100.00
47522;BME280;32291;52.010;4.446;2022-08-03T01:52:17;77525.44;;;-144.67;100.00
47522;BME280;32291;52.010;4.446;2022-08-03T01:53:22;77536.13;;;-144.67;100.00
47522;BME280;32291;52.010;4.446;2022-08-03T01:54:28;77527.56;;;-144.67;100.00
47522;BME280;32291;52.010;4.446;2022-08-03T01:55:34;77531.84;;;-144.67;100.00
47522;BME280;32291;52.010;4.446;2022-08-03T01:56:41;77529.72;;;-144.67;100.00
47522;BME280;32291;52.010;4.446;2022-08-03T01:57:48;77544.69;;;-144.67;100.00
47522;BME280;32291;52.010;4.446;2022-08-03T01:58:54;77538.28;;;-144.67;100.00
47522;BME280;32291;52.010;4.446;2022-08-03T02:00:00;77540.41;;;-144.67;100.00
47522;BME280;32291;52.010;4.446;2022-08-03T02:01:04;77540.41;;;-144.67;100.00
47522;BME280;32291;52.010;4.446;2022-08-03T02:02:13;77551.13;;;-144.67;100.00
47522;BME280;32291;52.010;4.446;2022-08-03T02:03:20;77559.69;;;-144.67;100.00
47522;BME280;32291;52.010;4.446;2022-08-03T02:04:26;77551.13;;;-144.67;100.00
47522;BME280;32291;52.010;4.446;2022-08-03T02:05:31;77548.97;;;-144.67;100.00
47522;BME280;32291;52.010;4.446;2022-08-03T02:06:37;77551.13;;;-144.67;100.00
47522;BME280;32291;52.010;4.446;2022-08-03T02:07:42;77555.41;;;-144.67;100.00
47522;BME280;32291;52.010;4.446;2022-08-03T02:08:48;77553.25;;;-144.67;100.00
47522;BME280;32291;52.010;4.446;2022-08-03T02:09:54;77555.41;;;-144.67;100.00
47522;BME280;32291;52.010;4.446;2022-08-03T02:10:59;77551.13;;;-144.67;100.00
47522;BME280;32291;52.010;4.446;2022-08-03T02:12:09;77546.84;;;-144.67;100.00
47522;BME280;32291;52.010;4.446;2022-08-03T02:13:15;77551.13;;;-144.67;100.00
47522;BME280;32291;52.010;4.446;2022-08-03T02:14:21;77544.69;;;-144.67;100.00
47522;BME280;32291;52.010;4.446;2022-08-03T02:15:26;77542.56;;;-144.67;100.00
47522;BME280;32291;52.010;4.446;2022-08-03T02:16:32;77546.84;;;-144.67;100.00
47522;BME280;32291;52.010;4.446;2022-08-03T02:17:37;77551.13;;;-144.67;100.00
47522;BME280;32291;52.010;4.446;2022-08-03T02:18:42;77546.84;;;-144.67;100.00
47522;BME280;32291;52.010;4.446;2022-08-03T02:19:47;77546.84;;;-144.67;100.00
47522;BME280;32291;52.010;4.446;2022-08-03T02:20:54;77548.97;;;-144.67;100.00
47522;BME280;32291;52.010;4.446;2022-08-03T02:21:57;77557.53;;;-144.67;100.00
47522;BME280;32291;52.010;4.446;2022-08-03T02:23:00;77555.41;;;-144.67;100.00
47522;BME280;32291;52.010;4.446;2022-08-03T02:24:07;77551.13;;;-144.67;100.00
47522;BME280;32291;52.010;4.446;2022-08-03T02:25:12;77542.56;;;-144.67;100.00
47522;BME280;32291;52.010;4.446;2022-08-03T02:26:19;77551.13;;;-144.67;100.00
47522;BME280;32291;52.010;4.446;2022-08-03T02:27:26;77546.84;;;-144.67;100.00
47522;BME280;32291;52.010;4.446;2022-08-03T02:28:37;77540.41;;;-144.67;100.00
47522;BME280;32291;52.010;4.446;2022-08-03T02:29:48;77538.28;;;-144.67;100.00
47522;BME280;32291;52.010;4.446;2022-08-03T02:31:02;77542.56;;;-144.67;100.00
47522;BME280;32291;52.010;4.446;2022-08-03T02:32:16;77546.84;;;-144.67;100.00
47522;BME280;32291;52.010;4.446;2022-08-03T02:33:31;77544.69;;;-144.67;100.00
47522;BME280;32291;52.010;4.446;2022-08-03T02:34:41;77542.56;;;-144.67;100.00
47522;BME280;32291;52.010;4.446;2022-08-03T02:35:50;77542.56;;;-144.67;100.00
47522;BME280;32291;52.010;4.446;2022-08-03T02:36:57;77546.84;;;-144.67;100.00
47522;BME280;32291;52.010;4.446;2022-08-03T02:38:04;77546.84;;;-144.67;100.00
47522;BME280;32291;52.010;4.446;2022-08-03T02:39:15;77538.28;;;-144.67;100.00
47522;BME280;32291;52.010;4.446;2022-08-03T02:40:23;77540.41;;;-144.67;100.00
47522;BME280;32291;52.010;4.446;2022-08-03T02:41:47;77546.84;;;-144.67;100.00
47522;BME280;32291;52.010;4.446;2022-08-03T02:43:02;77542.56;;;-144.67;100.00
47522;BME280;32291;52.010;4.446;2022-08-03T02:44:11;77553.25;;;-144.67;100.00
47522;BME280;32291;52.010;4.446;2022-08-03T02:45:17;77551.13;;;-144.67;100.00
47522;BME280;32291;52.010;4.446;2022-08-03T02:46:28;77538.28;;;-144.67;100.00
47522;BME280;32291;52.010;4.446;2022-08-03T02:47:36;77542.56;;;-144.67;100.00
47522;BME280;32291;52.010;4.446;2022-08-03T02:48:44;77540.41;;;-144.67;100.00
47522;BME280;32291;52.010;4.446;2022-08-03T02:49:51;77546.84;;;-144.67;100.00
47522;BME280;32291;52.010;4.446;2022-08-03T02:50:58;77542.56;;;-144.67;100.00
47522;BME280;32291;52.010;4.446;2022-08-03T02:52:09;77546.84;;;-144.67;100.00
47522;BME280;32291;52.010;4.446;2022-08-03T02:53:16;77538.28;;;-144.67;100.00
47522;BME280;32291;52.010;4.446;2022-08-03T02:54:22;77540.41;;;-144.67;100.00
47522;BME280;32291;52.010;4.446;2022-08-03T02:55:28;77536.13;;;-144.67;100.00
47522;BME280;32291;52.010;4.446;2022-08-03T02:56:35;77538.28;;;-144.67;100.00
47522;BME280;32291;52.010;4.446;2022-08-03T02:57:39;77542.56;;;-144.67;100.00
47522;BME280;32291;52.010;4.446;2022-08-03T02:58:46;77538.28;;;-144.67;100.00
47522;BME280;32291;52.010;4.446;2022-08-03T02:59:54;77536.13;;;-144.67;100.00
47522;BME280;32291;52.010;4.446;2022-08-03T03:00:58;77534.00;;;-144.67;100.00
47522;BME280;32291;52.010;4.446;2022-08-03T03:02:03;77536.13;;;-144.67;100.00
47522;BME280;32291;52.010;4.446;2022-08-03T03:03:06;77546.84;;;-144.67;100.00
47522;BME280;32291;52.010;4.446;2022-08-03T03:04:11;77546.84;;;-144.67;100.00
47522;BME280;32291;52.010;4.446;2022-08-03T03:05:15;77538.28;;;-144.67;100.00
47522;BME280;32291;52.010;4.446;2022-08-03T03:06:18;77538.28;;;-144.67;100.00
47522;BME280;32291;52.010;4.446;2022-08-03T03:07:20;77534.00;;;-144.67;100.00
47522;BME280;32291;52.010;4.446;2022-08-03T03:08:24;77538.28;;;-144.67;100.00
47522;BME280;32291;52.010;4.446;2022-08-03T03:09:29;77536.13;;;-144.67;100.00
47522;BME280;32291;52.010;4.446;2022-08-03T03:10:33;77536.13;;;-144.67;100.00
47522;BME280;32291;52.010;4.446;2022-08-03T03:11:38;77538.28;;;-144.67;100.00
47522;BME280;32291;52.010;4.446;2022-08-03T03:12:43;77540.41;;;-144.67;100.00
47522;BME280;32291;52.010;4.446;2022-08-03T03:13:48;77546.84;;;-144.67;100.00
47522;BME280;32291;52.010;4.446;2022-08-03T03:14:51;77548.97;;;-144.67;100.00
47522;BME280;32291;52.010;4.446;2022-08-03T03:15:55;77551.13;;;-144.67;100.00
47522;BME280;32291;52.010;4.446;2022-08-03T03:17:02;77546.84;;;-144.67;100.00
47522;BME280;32291;52.010;4.446;2022-08-03T03:18:07;77557.53;;;-144.67;100.00
47522;BME280;32291;52.010;4.446;2022-08-03T03:19:13;77553.25;;;-144.67;100.00
47522;BME280;32291;52.010;4.446;2022-08-03T03:20:20;77553.25;;;-144.67;100.00
47522;BME280;32291;52.010;4.446;2022-08-03T03:21:24;77553.25;;;-144.67;100.00
47522;BME280;32291;52.010;4.446;2022-08-03T03:22:30;77559.69;;;-144.67;100.00
47522;BME280;32291;52.010;4.446;2022-08-03T03:23:37;77557.53;;;-144.67;100.00
47522;BME280;32291;52.010;4.446;2022-08-03T03:24:43;77561.81;;;-144.67;100.00
47522;BME280;32291;52.010;4.446;2022-08-03T03:25:48;77566.09;;;-144.67;100.00
47522;BME280;32291;52.010;4.446;2022-08-03T03:26:52;77559.69;;;-144.67;100.00
47522;BME280;32291;52.010;4.446;2022-08-03T03:27:55;77561.81;;;-144.67;100.00
47522;BME280;32291;52.010;4.446;2022-08-03T03:28:57;77563.97;;;-144.67;100.00
47522;BME280;32291;52.010;4.446;2022-08-03T03:30:01;77568.22;;;-144.67;100.00
47522;BME280;32291;52.010;4.446;2022-08-03T03:31:05;77566.09;;;-144.67;100.00
47522;BME280;32291;52.010;4.446;2022-08-03T03:32:08;77572.53;;;-144.67;100.00
47522;BME280;32291;52.010;4.446;2022-08-03T03:33:12;77574.66;;;-144.67;100.00
47522;BME280;32291;52.010;4.446;2022-08-03T03:34:14;77572.53;;;-144.67;100.00
47522;BME280;32291;52.010;4.446;2022-08-03T03:35:18;77566.09;;;-144.67;100.00
47522;BME280;32291;52.010;4.446;2022-08-03T03:36:21;77581.06;;;-144.67;100.00
47522;BME280;32291;52.010;4.446;2022-08-03T03:37:23;77572.53;;;-144.67;100.00
47522;BME280;32291;52.010;4.446;2022-08-03T03:38:28;77572.53;;;-144.67;100.00
47522;BME280;32291;52.010;4.446;2022-08-03T03:39:30;77578.94;;;-144.67;100.00
47522;BME280;32291;52.010;4.446;2022-08-03T03:40:39;77568.22;;;-144.67;100.00
47522;BME280;32291;52.010;4.446;2022-08-03T03:41:42;77574.66;;;-144.67;100.00
47522;BME280;32291;52.010;4.446;2022-08-03T03:42:45;77576.81;;;-144.67;100.00
47522;BME280;32291;52.010;4.446;2022-08-03T03:43:49;77568.22;;;-144.67;100.00
47522;BME280;32291;52.010;4.446;2022-08-03T03:44:51;77572.53;;;-144.67;100.00
47522;BME280;32291;52.010;4.446;2022-08-03T03:45:54;77576.81;;;-144.67;100.00
47522;BME280;32291;52.010;4.446;2022-08-03T03:46:59;77572.53;;;-144.67;100.00
47522;BME280;32291;52.010;4.446;2022-08-03T03:48:05;77583.22;;;-144.67;100.00
47522;BME280;32291;52.010;4.446;2022-08-03T03:49:10;77585.38;;;-144.67;100.00
47522;BME280;32291;52.010;4.446;2022-08-03T03:50:14;77583.22;;;-144.67;100.00
47522;BME280;32291;52.010;4.446;2022-08-03T03:51:18;77585.38;;;-144.67;100.00
47522;BME280;32291;52.010;4.446;2022-08-03T03:52:20;77585.38;;;-144.67;100.00
47522;BME280;32291;52.010;4.446;2022-08-03T03:53:23;77583.22;;;-144.67;100.00
47522;BME280;32291;52.010;4.446;2022-08-03T03:54:25;77585.38;;;-144.67;100.00
47522;BME280;32291;52.010;4.446;2022-08-03T03:55:27;77578.94;;;-144.67;100.00
47522;BME280;32291;52.010;4.446;2022-08-03T03:56:29;77589.66;;;-144.67;100.00
47522;BME280;32291;52.010;4.446;2022-08-03T03:57:33;77585.38;;;-144.67;100.00
47522;BME280;32291;52.010;4.446;2022-08-03T03:58:35;77585.38;;;-144.67;100.00
47522;BME280;32291;52.010;4.446;2022-08-03T03:59:42;77576.81;;;-144.67;100.00
47522;BME280;32291;52.010;4.446;2022-08-03T04:00:44;77576.81;;;-144.67;100.00
47522;BME280;32291;52.010;4.446;2022-08-03T04:01:47;77581.06;;;-144.67;100.00
47522;BME280;32291;52.010;4.446;2022-08-03T04:02:49;77583.22;;;-144.67;100.00
47522;BME280;32291;52.010;4.446;2022-08-03T04:03:51;77576.81;;;-144.67;100.00
47522;BME280;32291;52.010;4.446;2022-08-03T04:04:53;77581.06;;;-144.67;100.00
47522;BME280;32291;52.010;4.446;2022-08-03T04:06:14;77581.06;;;-144.67;100.00
47522;BME280;32291;52.010;4.446;2022-08-03T04:08:14;77585.38;;;-144.67;100.00
47522;BME280;32291;52.010;4.446;2022-08-03T04:09:39;77587.50;;;-144.67;100.00
47522;BME280;32291;52.010;4.446;2022-08-03T04:11:19;77585.38;;;-144.67;100.00
47522;BME280;32291;52.010;4.446;2022-08-03T04:12:27;77589.66;;;-144.67;100.00
47522;BME280;32291;52.010;4.446;2022-08-03T04:13:39;77585.38;;;-144.67;100.00
47522;BME280;32291;52.010;4.446;2022-08-03T04:14:47;77585.38;;;-144.67;100.00
47522;BME280;32291;52.010;4.446;2022-08-03T04:15:52;77593.91;;;-144.67;100.00
47522;BME280;32291;52.010;4.446;2022-08-03T04:17:01;77593.91;;;-144.67;100.00
47522;BME280;32291;52.010;4.446;2022-08-03T04:18:09;77600.34;;;-144.67;100.00
47522;BME280;32291;52.010;4.446;2022-08-03T04:20:50;77598.19;;;-144.67;100.00
47522;BME280;32291;52.010;4.446;2022-08-03T04:21:59;77593.91;;;-144.67;100.00
47522;BME280;32291;52.010;4.446;2022-08-03T04:23:07;77593.91;;;-144.67;100.00
47522;BME280;32291;52.010;4.446;2022-08-03T04:24:12;77591.78;;;-144.67;100.00
47522;BME280;32291;52.010;4.446;2022-08-03T04:25:17;77593.91;;;-144.67;100.00
47522;BME280;32291;52.010;4.446;2022-08-03T04:26:31;77598.19;;;-144.67;100.00
47522;BME280;32291;52.010;4.446;2022-08-03T04:27:40;77593.91;;;-144.67;100.00
47522;BME280;32291;52.010;4.446;2022-08-03T04:28:45;77593.91;;;-144.67;100.00
47522;BME280;32291;52.010;4.446;2022-08-03T04:29:53;77589.66;;;-144.67;100.00
47522;BME280;32291;52.010;4.446;2022-08-03T04:31:00;77602.50;;;-144.67;100.00
47522;BME280;32291;52.010;4.446;2022-08-03T04:32:06;77606.75;;;-144.67;100.00
47522;BME280;32291;52.010;4.446;2022-08-03T04:33:10;77604.63;;;-144.67;100.00
47522;BME280;32291;52.010;4.446;2022-08-03T04:34:12;77598.19;;;-144.67;100.00
47522;BME280;32291;52.010;4.446;2022-08-03T04:35:14;77602.50;;;-144.67;100.00
47522;BME280;32291;52.010;4.446;2022-08-03T04:36:26;77598.19;;;-144.67;100.00
47522;BME280;32291;52.010;4.446;2022-08-03T04:37:38;77606.75;;;-144.67;100.00
47522;BME280;32291;52.010;4.446;2022-08-03T04:39:03;77600.34;;;-144.67;100.00
47522;BME280;32291;52.010;4.446;2022-08-03T04:40:19;77602.50;;;-144.67;100.00
47522;BME280;32291;52.010;4.446;2022-08-03T04:41:26;77602.50;;;-144.67;100.00
47522;BME280;32291;52.010;4.446;2022-08-03T04:42:32;77598.19;;;-144.67;100.00
47522;BME280;32291;52.010;4.446;2022-08-03T04:43:37;77606.75;;;-144.67;100.00
47522;BME280;32291;52.010;4.446;2022-08-03T04:44:44;77598.19;;;-144.67;100.00
47522;BME280;32291;52.010;4.446;2022-08-03T04:45:50;77593.91;;;-144.67;100.00
47522;BME280;32291;52.010;4.446;2022-08-03T04:46:55;77593.91;;;-144.67;100.00
47522;BME280;32291;52.010;4.446;2022-08-03T04:47:58;77589.66;;;-144.67;100.00
47522;BME280;32291;52.010;4.446;2022-08-03T04:49:01;77598.19;;;-144.67;100.00
47522;BME280;32291;52.010;4.446;2022-08-03T04:50:05;77591.78;;;-144.67;100.00
47522;BME280;32291;52.010;4.446;2022-08-03T04:51:09;77598.19;;;-144.67;100.00
47522;BME280;32291;52.010;4.446;2022-08-03T04:52:14;77602.50;;;-144.67;100.00
47522;BME280;32291;52.010;4.446;2022-08-03T04:53:16;77598.19;;;-144.67;100.00
47522;BME280;32291;52.010;4.446;2022-08-03T04:54:18;77596.06;;;-144.67;100.00
47522;BME280;32291;52.010;4.446;2022-08-03T04:55:28;77598.19;;;-144.67;100.00
47522;BME280;32291;52.010;4.446;2022-08-03T04:56:33;77600.34;;;-144.67;100.00
47522;BME280;32291;52.010;4.446;2022-08-03T04:57:35;77602.50;;;-144.67;100.00
47522;BME280;32291;52.010;4.446;2022-08-03T04:58:37;77593.91;;;-144.67;100.00
47522;BME280;32291;52.010;4.446;2022-08-03T04:59:39;77600.34;;;-144.67;100.00
47522;BME280;32291;52.010;4.446;2022-08-03T05:00:41;77593.91;;;-144.67;100.00
47522;BME280;32291;52.010;4.446;2022-08-03T05:01:44;77589.66;;;-144.67;100.00
47522;BME280;32291;52.010;4.446;2022-08-03T05:02:47;77589.66;;;-144.67;100.00
47522;BME280;32291;52.010;4.446;2022-08-03T05:03:50;77589.66;;;-144.67;100.00
47522;BME280;32291;52.010;4.446;2022-08-03T05:04:52;77591.78;;;-144.67;100.00
47522;BME280;32291;52.010;4.446;2022-08-03T05:05:54;77585.38;;;-144.67;100.00
47522;BME280;32291;52.010;4.446;2022-08-03T05:06:56;77589.66;;;-144.67;100.00
47522;BME280;32291;52.010;4.446;2022-08-03T05:07:58;77593.91;;;-144.67;100.00
47522;BME280;32291;52.010;4.446;2022-08-03T05:09:03;77589.66;;;-144.67;100.00
47522;BME280;32291;52.010;4.446;2022-08-03T05:10:07;77596.06;;;-144.67;100.00
47522;BME280;32291;52.010;4.446;2022-08-03T05:11:10;77589.66;;;-144.67;100.00
47522;BME280;32291;52.010;4.446;2022-08-03T05:12:12;77593.91;;;-144.67;100.00
47522;BME280;32291;52.010;4.446;2022-08-03T05:13:14;77587.50;;;-144.67;100.00
47522;BME280;32291;52.010;4.446;2022-08-03T05:14:16;77587.50;;;-144.67;100.00
47522;BME280;32291;52.010;4.446;2022-08-03T05:15:18;77602.50;;;-144.67;100.00
47522;BME280;32291;52.010;4.446;2022-08-03T05:16:21;77596.06;;;-144.67;100.00
47522;BME280;32291;52.010;4.446;2022-08-03T05:17:23;77589.66;;;-144.67;100.00
47522;BME280;32291;52.010;4.446;2022-08-03T05:18:25;77598.19;;;-144.67;100.00
47522;BME280;32291;52.010;4.446;2022-08-03T05:19:27;77593.91;;;-144.67;100.00
47522;BME280;32291;52.010;4.446;2022-08-03T05:20:30;77589.66;;;-144.67;100.00
47522;BME280;32291;52.010;4.446;2022-08-03T05:21:33;77583.22;;;-144.67;100.00
47522;BME280;32291;52.010;4.446;2022-08-03T05:22:35;77587.50;;;-144.67;100.00
47522;BME280;32291;52.010;4.446;2022-08-03T05:23:37;77578.94;;;-144.67;100.00
47522;BME280;32291;52.010;4.446;2022-08-03T05:24:39;77574.66;;;-144.67;100.00
47522;BME280;32291;52.010;4.446;2022-08-03T05:25:41;77574.66;;;-144.67;100.00
47522;BME280;32291;52.010;4.446;2022-08-03T05:26:43;77570.38;;;-144.67;100.00
47522;BME280;32291;52.010;4.446;2022-08-03T05:27:46;77568.22;;;-144.67;100.00
47522;BME280;32291;52.010;4.446;2022-08-03T05:28:48;77559.69;;;-144.67;100.00
47522;BME280;32291;52.010;4.446;2022-08-03T05:29:51;77559.69;;;-144.67;100.00
47522;BME280;32291;52.010;4.446;2022-08-03T05:30:53;77553.25;;;-144.67;100.00
47522;BME280;32291;52.010;4.446;2022-08-03T05:31:55;77551.13;;;-144.67;100.00
47522;BME280;32291;52.010;4.446;2022-08-03T05:32:57;77557.53;;;-144.67;100.00
47522;BME280;32291;52.010;4.446;2022-08-03T05:34:00;77544.69;;;-144.67;100.00
47522;BME280;32291;52.010;4.446;2022-08-03T05:35:02;77542.56;;;-144.67;100.00
47522;BME280;32291;52.010;4.446;2022-08-03T05:36:05;77540.41;;;-144.67;100.00
47522;BME280;32291;52.010;4.446;2022-08-03T05:37:08;77540.41;;;-144.67;100.00
47522;BME280;32291;52.010;4.446;2022-08-03T05:38:10;77534.00;;;-144.67;100.00
47522;BME280;32291;52.010;4.446;2022-08-03T05:39:12;77531.84;;;-144.67;100.00
47522;BME280;32291;52.010;4.446;2022-08-03T05:40:14;77523.28;;;-144.67;100.00
47522;BME280;32291;52.010;4.446;2022-08-03T05:41:16;77521.16;;;-144.67;100.00
47522;BME280;32291;52.010;4.446;2022-08-03T05:42:18;77521.16;;;-144.67;100.00
47522;BME280;32291;52.010;4.446;2022-08-03T05:43:20;77523.28;;;-144.67;100.00
47522;BME280;32291;52.010;4.446;2022-08-03T05:44:23;77516.88;;;-144.67;100.00
47522;BME280;32291;52.010;4.446;2022-08-03T05:45:26;77512.59;;;-144.67;100.00
47522;BME280;32291;52.010;4.446;2022-08-03T05:46:28;77508.31;;;-144.67;100.00
47522;BME280;32291;52.010;4.446;2022-08-03T05:47:30;77516.88;;;-144.67;100.00
47522;BME280;32291;52.010;4.446;2022-08-03T05:48:32;77508.31;;;-144.67;100.00
47522;BME280;32291;52.010;4.446;2022-08-03T05:49:34;77499.75;;;-144.67;100.00
47522;BME280;32291;52.010;4.446;2022-08-03T05:50:36;77504.03;;;-144.67;100.00